Time;durP1;ratioP1;P1;durP2;ratioP2;P2;SDS_P1;SDS_P2;PMS_P1;PMS_P2;Temp;Humidity;BMP_temperature;BMP_pressure;BME280_temperature;BME280_humidity;BME280_pressure;Samples;Min_cycle;Max_cycle;Signal;HPM_P1;HPM_P2
2022/01/11 00:00:24;;;;;;;1.48;1.35;;;;;;;;;;5013484;28;94105;-60
2022/01/11 00:02:51;;;;;;;1.23;1.13;;;;;;;;;;5013293;28;92892;-60
2022/01/11 00:08:02;;;;;;;1.08;1.00;;;;;;;;;;5012553;28;92477;-60
2022/01/11 00:10:35;;;;;;;1.25;1.15;;;;;;;;;;5013214;28;93767;-60
2022/01/11 00:13:02;;;;;;;1.08;1.08;;;;;;;;;;5021841;28;93843;-60
2022/01/11 00:15:28;;;;;;;1.40;1.30;;;;;;;;;;5005973;28;91672;-60
2022/01/11 00:17:57;;;;;;;2.88;1.58;;;;;;;;;;5012388;28;92833;-60
2022/01/11 00:20:26;;;;;;;1.17;1.05;;;;;;;;;;5007952;28;92364;-60
2022/01/11 00:25:26;;;;;;;1.60;1.33;;;;;;;;;;5025676;27;93185;-60
2022/01/11 00:27:52;;;;;;;1.05;1.05;;;;;;;;;;5032654;27;92427;-60
2022/01/11 00:30:19;;;;;;;1.35;1.20;;;;;;;;;;5012665;27;93140;-59
2022/01/11 00:32:50;;;;;;;1.17;1.05;;;;;;;;;;5020521;28;92356;-60
2022/01/11 00:35:22;;;;;;;1.38;1.27;;;;;;;;;;5021146;27;92425;-60
2022/01/11 00:37:48;;;;;;;1.23;1.13;;;;;;;;;;5029737;28;93084;-60
2022/01/11 00:40:15;;;;;;;1.52;1.02;;;;;;;;;;5012694;28;93656;-60
2022/01/11 00:42:41;;;;;;;1.33;1.15;;;;;;;;;;5021601;28;92562;-60
2022/01/11 00:45:10;;;;;;;3.25;1.35;;;;;;;;;;5016093;28;92711;-60
2022/01/11 00:47:36;;;;;;;1.17;1.17;;;;;;;;;;5010283;28;94930;-60
2022/01/11 00:50:06;;;;;;;1.60;1.48;;;;;;;;;;5015338;28;95500;-60
2022/01/11 00:52:32;;;;;;;1.40;1.30;;;;;;;;;;5013663;27;93267;-60
2022/01/11 00:54:59;;;;;;;1.00;1.00;;;;;;;;;;5013284;28;92984;-60
2022/01/11 00:57:25;;;;;;;1.98;1.50;;;;;;;;;;5021598;27;93056;-60
2022/01/11 00:59:53;;;;;;;1.40;1.30;;;;;;;;;;5003915;28;93847;-60
2022/01/11 01:02:20;;;;;;;1.38;1.27;;;;;;;;;;5013707;28;92542;-60
2022/01/11 01:04:46;;;;;;;1.38;1.27;;;;;;;;;;5030375;28;93404;-60
2022/01/11 01:07:12;;;;;;;1.60;1.50;;;;;;;;;;5015522;27;93120;-60
2022/01/11 01:09:51;;;;;;;1.50;1.40;;;;;;;;;;5013513;28;94210;-58
2022/01/11 01:12:17;;;;;;;1.45;1.35;;;;;;;;;;5017775;28;95959;-62
2022/01/11 01:14:43;;;;;;;2.00;1.50;;;;;;;;;;5014656;27;92399;-60
2022/01/11 01:17:10;;;;;;;1.77;1.25;;;;;;;;;;5031827;27;92374;-60
2022/01/11 01:19:36;;;;;;;1.20;1.15;;;;;;;;;;5020881;27;92309;-60
2022/01/11 01:22:03;;;;;;;1.08;1.08;;;;;;;;;;5010867;28;92498;-59
2022/01/11 01:24:29;;;;;;;1.45;1.35;;;;;;;;;;5009576;28;94087;-60
2022/01/11 01:26:55;;;;;;;1.65;1.50;;;;;;;;;;5030316;27;93446;-60
2022/01/11 01:29:21;;;;;;;1.90;1.40;;;;;;;;;;5019760;27;91791;-60
2022/01/11 01:31:48;;;;;;;1.70;1.25;;;;;;;;;;5017442;28;93426;-60
2022/01/11 01:34:14;;;;;;;1.38;1.27;;;;;;;;;;5023820;27;93545;-59
2022/01/11 01:36:40;;;;;;;1.40;1.30;;;;;;;;;;5013775;28;95146;-60
2022/01/11 01:39:06;;;;;;;1.45;1.35;;;;;;;;;;5015680;28;92513;-60
2022/01/11 01:41:33;;;;;;;1.50;1.40;;;;;;;;;;5021987;28;92443;-60
2022/01/11 01:44:00;;;;;;;1.50;1.40;;;;;;;;;;5015188;28;93425;-60
2022/01/11 01:46:27;;;;;;;1.70;1.52;;;;;;;;;;5017865;28;92453;-60
2022/01/11 01:48:57;;;;;;;1.23;1.13;;;;;;;;;;5014599;28;93043;-60
2022/01/11 01:51:23;;;;;;;1.63;1.53;;;;;;;;;;5019379;28;92512;-60
2022/01/11 01:53:50;;;;;;;1.33;1.23;;;;;;;;;;5023777;28;91637;-60
2022/01/11 01:56:18;;;;;;;1.30;1.20;;;;;;;;;;5014394;28;92483;-61
2022/01/11 01:58:45;;;;;;;1.40;1.30;;;;;;;;;;5009639;28;93241;-59
2022/01/11 02:01:13;;;;;;;1.58;1.40;;;;;;;;;;5029359;27;94737;-60
2022/01/11 02:03:41;;;;;;;1.30;1.20;;;;;;;;;;5005495;28;96900;-60
2022/01/11 02:06:08;;;;;;;1.50;1.40;;;;;;;;;;5009805;28;92435;-60
2022/01/11 02:08:35;;;;;;;1.50;1.40;;;;;;;;;;5018773;28;92497;-61
2022/01/11 02:11:02;;;;;;;1.38;1.30;;;;;;;;;;5018254;28;92861;-60
2022/01/11 02:13:28;;;;;;;1.50;1.40;;;;;;;;;;5026901;28;92736;-60
2022/01/11 02:15:55;;;;;;;1.77;1.27;;;;;;;;;;5020118;28;92364;-60
2022/01/11 02:18:24;;;;;;;1.27;1.27;;;;;;;;;;5032899;28;92554;-60
2022/01/11 02:20:51;;;;;;;1.50;1.40;;;;;;;;;;5022895;27;92571;-58
2022/01/11 02:23:18;;;;;;;1.85;1.40;;;;;;;;;;5020113;28;92792;-60
2022/01/11 02:25:45;;;;;;;1.27;1.17;;;;;;;;;;5012231;28;95767;-59
2022/01/11 02:28:13;;;;;;;1.30;1.30;;;;;;;;;;5017402;28;92356;-60
2022/01/11 02:30:40;;;;;;;2.17;1.30;;;;;;;;;;5026907;28;92599;-59
2022/01/11 02:33:13;;;;;;;1.42;1.33;;;;;;;;;;5022520;28;94429;-60
2022/01/11 02:35:39;;;;;;;1.20;1.10;;;;;;;;;;5013754;28;93139;-60
2022/01/11 02:38:05;;;;;;;1.42;1.33;;;;;;;;;;5021798;28;92570;-60
2022/01/11 02:40:32;;;;;;;1.23;1.23;;;;;;;;;;5014513;28;92352;-60
2022/01/11 02:42:58;;;;;;;1.25;1.25;;;;;;;;;;5013727;28;92908;-60
2022/01/11 02:45:24;;;;;;;1.17;1.10;;;;;;;;;;5015108;28;94678;-60
2022/01/11 02:47:51;;;;;;;1.40;1.30;;;;;;;;;;5014407;28;92784;-60
2022/01/11 02:50:19;;;;;;;1.33;1.23;;;;;;;;;;5017362;28;94739;-60
2022/01/11 02:52:45;;;;;;;1.17;1.17;;;;;;;;;;5015913;28;92661;-60
2022/01/11 02:55:13;;;;;;;1.83;1.60;;;;;;;;;;5017177;28;93182;-60
2022/01/11 02:57:40;;;;;;;1.55;1.45;;;;;;;;;;5019243;28;93250;-60
2022/01/11 03:00:07;;;;;;;1.42;1.27;;;;;;;;;;5007494;28;92819;-60
2022/01/11 03:02:33;;;;;;;1.20;1.10;;;;;;;;;;5013828;28;92884;-60
2022/01/11 03:05:00;;;;;;;1.60;1.50;;;;;;;;;;5013808;28;92406;-60
2022/01/11 03:07:26;;;;;;;1.17;1.17;;;;;;;;;;5013461;28;91950;-59
2022/01/11 03:10:03;;;;;;;1.20;1.20;;;;;;;;;;5015250;28;92348;-60
2022/01/11 03:12:30;;;;;;;1.45;1.35;;;;;;;;;;5014777;28;93112;-60
2022/01/11 03:14:56;;;;;;;1.35;1.25;;;;;;;;;;5011616;28;94828;-60
2022/01/11 03:17:23;;;;;;;2.15;1.50;;;;;;;;;;5015791;28;95835;-60
2022/01/11 03:19:49;;;;;;;1.70;1.60;;;;;;;;;;5009233;28;92375;-60
2022/01/11 03:22:16;;;;;;;1.48;1.38;;;;;;;;;;5015716;28;93042;-60
2022/01/11 03:24:44;;;;;;;1.70;1.60;;;;;;;;;;5015464;27;92470;-60
2022/01/11 03:27:10;;;;;;;1.50;1.40;;;;;;;;;;5021322;28;92560;-60
2022/01/11 03:29:38;;;;;;;1.58;1.33;;;;;;;;;;5013300;28;92446;-60
2022/01/11 03:32:04;;;;;;;1.38;1.33;;;;;;;;;;5014609;27;92859;-60
2022/01/11 03:34:31;;;;;;;1.65;1.42;;;;;;;;;;5012892;28;92321;-60
2022/01/11 03:36:58;;;;;;;1.25;1.20;;;;;;;;;;5013232;28;92368;-60
2022/01/11 03:39:25;;;;;;;1.40;1.30;;;;;;;;;;5016967;28;94795;-60
2022/01/11 03:41:51;;;;;;;1.65;1.55;;;;;;;;;;5026307;27;94526;-60
2022/01/11 03:44:17;;;;;;;1.50;1.40;;;;;;;;;;5014261;27;93397;-60
2022/01/11 03:46:43;;;;;;;1.67;1.40;;;;;;;;;;5013025;28;92513;-60
2022/01/11 03:49:10;;;;;;;1.42;1.33;;;;;;;;;;5012518;28;92485;-60
2022/01/11 03:51:38;;;;;;;1.50;1.40;;;;;;;;;;5017178;28;93433;-60
2022/01/11 03:54:12;;;;;;;1.20;1.20;;;;;;;;;;5013156;28;92420;-60
2022/01/11 03:56:38;;;;;;;1.40;1.30;;;;;;;;;;5028812;28;91821;-60
2022/01/11 03:59:06;;;;;;;1.33;1.23;;;;;;;;;;5018502;28;92483;-60
2022/01/11 04:01:33;;;;;;;1.35;1.25;;;;;;;;;;5020351;28;92386;-60
2022/01/11 04:03:59;;;;;;;1.30;1.30;;;;;;;;;;5010435;28;95366;-60
2022/01/11 04:06:27;;;;;;;1.45;1.35;;;;;;;;;;5014688;28;93925;-60
2022/01/11 04:08:53;;;;;;;1.48;1.38;;;;;;;;;;5020574;27;93150;-60
2022/01/11 04:11:19;;;;;;;2.33;1.35;;;;;;;;;;5017811;28;94137;-60
2022/01/11 04:13:47;;;;;;;1.73;1.63;;;;;;;;;;5012774;28;92390;-60
2022/01/11 04:16:14;;;;;;;1.50;1.40;;;;;;;;;;5017713;28;92433;-60
2022/01/11 04:18:40;;;;;;;1.25;1.23;;;;;;;;;;5027683;27;93373;-60
2022/01/11 04:21:07;;;;;;;1.42;1.33;;;;;;;;;;5024294;28;91820;-60
2022/01/11 04:23:33;;;;;;;1.70;1.42;;;;;;;;;;5024597;28;93270;-60
2022/01/11 04:26:00;;;;;;;1.45;1.35;;;;;;;;;;5031497;27;92381;-60
2022/01/11 04:28:27;;;;;;;1.50;1.27;;;;;;;;;;5021691;27;94857;-60
2022/01/11 04:31:00;;;;;;;1.63;1.52;;;;;;;;;;5022211;27;92435;-60
2022/01/11 04:33:27;;;;;;;2.00;1.60;;;;;;;;;;5016245;27;92407;-60
2022/01/11 04:35:54;;;;;;;1.52;1.42;;;;;;;;;;5012144;28;92476;-60
2022/01/11 04:38:22;;;;;;;1.70;1.60;;;;;;;;;;5022386;28;93572;-60
2022/01/11 04:40:48;;;;;;;1.52;1.42;;;;;;;;;;5005314;28;92973;-60
2022/01/11 04:43:14;;;;;;;1.50;1.40;;;;;;;;;;5018002;28;92638;-60
2022/01/11 04:45:41;;;;;;;1.63;1.52;;;;;;;;;;5012906;28;91614;-60
2022/01/11 04:48:07;;;;;;;1.50;1.40;;;;;;;;;;5015332;28;93464;-60
2022/01/11 04:50:34;;;;;;;1.25;1.15;;;;;;;;;;5011152;28;92377;-60
2022/01/11 04:53:01;;;;;;;1.50;1.40;;;;;;;;;;5011398;28;95269;-60
2022/01/11 04:55:27;;;;;;;1.55;1.45;;;;;;;;;;5023661;27;94021;-60
2022/01/11 04:57:55;;;;;;;1.35;1.25;;;;;;;;;;5009791;28;93484;-60
2022/01/11 05:00:22;;;;;;;1.55;1.40;;;;;;;;;;5011943;28;92491;-60
2022/01/11 05:02:48;;;;;;;1.60;1.50;;;;;;;;;;5014964;27;92402;-60
2022/01/11 05:05:15;;;;;;;1.60;1.50;;;;;;;;;;5016140;28;92874;-60
2022/01/11 05:07:42;;;;;;;1.50;1.40;;;;;;;;;;5012841;28;93312;-60
2022/01/11 05:10:09;;;;;;;1.60;1.50;;;;;;;;;;5017651;28;91938;-60
2022/01/11 05:12:38;;;;;;;1.52;1.42;;;;;;;;;;5013772;28;92527;-60
2022/01/11 05:15:08;;;;;;;1.60;1.50;;;;;;;;;;5018937;28;93123;-60
2022/01/11 05:17:34;;;;;;;;;;;;;;;;;;5009893;28;95951;-60
2022/01/11 05:20:01;;;;;;;2.00;1.80;;;;;;;;;;5016576;28;118456;-60
2022/01/11 05:22:27;;;;;;;1.70;1.60;;;;;;;;;;5011719;28;92412;-60
2022/01/11 05:24:53;;;;;;;1.52;1.42;;;;;;;;;;5009538;28;92548;-57
2022/01/11 05:27:19;;;;;;;1.70;1.60;;;;;;;;;;5014950;28;92407;-60
2022/01/11 05:29:46;;;;;;;1.42;1.33;;;;;;;;;;5010582;28;95489;-60
2022/01/11 05:32:12;;;;;;;1.77;1.50;;;;;;;;;;5009129;28;92445;-60
2022/01/11 05:34:38;;;;;;;1.60;1.50;;;;;;;;;;5012117;28;93219;-60
2022/01/11 05:37:05;;;;;;;1.67;1.58;;;;;;;;;;5028622;28;93209;-59
2022/01/11 05:39:31;;;;;;;1.50;1.40;;;;;;;;;;5014433;27;92594;-60
2022/01/11 05:41:59;;;;;;;1.70;1.60;;;;;;;;;;5020091;27;95059;-60
2022/01/11 05:44:25;;;;;;;1.80;1.70;;;;;;;;;;5016201;27;93678;-60
2022/01/11 05:46:52;;;;;;;1.70;1.60;;;;;;;;;;5011264;28;92450;-61
2022/01/11 05:49:18;;;;;;;1.52;1.42;;;;;;;;;;5027690;28;93640;-60
2022/01/11 05:51:44;;;;;;;1.63;1.52;;;;;;;;;;5011873;27;92438;-60
2022/01/11 05:54:10;;;;;;;1.88;1.77;;;;;;;;;;5012782;28;92506;-59
2022/01/11 05:56:37;;;;;;;2.22;1.55;;;;;;;;;;5014600;28;93324;-60
2022/01/11 05:59:03;;;;;;;1.60;1.50;;;;;;;;;;5011545;27;91572;-60
2022/01/11 06:01:29;;;;;;;1.65;1.55;;;;;;;;;;5010125;28;92428;-60
2022/01/11 06:03:56;;;;;;;1.95;1.83;;;;;;;;;;5010704;28;93592;-60
2022/01/11 06:06:22;;;;;;;1.98;1.88;;;;;;;;;;5018142;28;95176;-59
2022/01/11 06:08:49;;;;;;;1.50;1.40;;;;;;;;;;5017695;27;94513;-60
2022/01/11 06:11:15;;;;;;;1.60;1.50;;;;;;;;;;5008399;28;92482;-60
2022/01/11 06:13:41;;;;;;;1.60;1.50;;;;;;;;;;5014298;28;93057;-60
2022/01/11 06:16:08;;;;;;;1.70;1.60;;;;;;;;;;5028440;28;93595;-60
2022/01/11 06:18:34;;;;;;;1.77;1.67;;;;;;;;;;5024834;27;92484;-60
2022/01/11 06:21:01;;;;;;;1.70;1.60;;;;;;;;;;5014360;28;94506;-60
2022/01/11 06:23:28;;;;;;;1.60;1.50;;;;;;;;;;5015648;28;91744;-60
2022/01/11 06:25:54;;;;;;;1.58;1.48;;;;;;;;;;5018130;27;93402;-60
2022/01/11 06:28:20;;;;;;;1.70;1.60;;;;;;;;;;5023852;28;92698;-60
2022/01/11 06:30:47;;;;;;;1.80;1.70;;;;;;;;;;5020548;27;94858;-60
2022/01/11 06:33:14;;;;;;;3.53;1.67;;;;;;;;;;5011645;28;96902;-60
2022/01/11 06:35:40;;;;;;;1.55;1.45;;;;;;;;;;5014026;28;94032;-60
2022/01/11 06:38:06;;;;;;;1.55;1.45;;;;;;;;;;5016886;28;93753;-60
2022/01/11 06:40:33;;;;;;;1.25;1.25;;;;;;;;;;5033657;27;93173;-60
2022/01/11 06:42:59;;;;;;;1.75;1.65;;;;;;;;;;5033642;27;93313;-60
2022/01/11 06:45:25;;;;;;;1.80;1.70;;;;;;;;;;5034012;27;93374;-60
2022/01/11 06:47:53;;;;;;;1.70;1.60;;;;;;;;;;5019911;27;93167;-60
2022/01/11 06:50:20;;;;;;;1.40;1.30;;;;;;;;;;5031884;28;92347;-60
2022/01/11 06:52:46;;;;;;;1.77;1.67;;;;;;;;;;4997339;28;92428;-60
2022/01/11 06:55:13;;;;;;;1.70;1.60;;;;;;;;;;4992840;28;95438;-60
2022/01/11 06:57:39;;;;;;;2.08;1.88;;;;;;;;;;5010117;28;93045;-58
2022/01/11 07:00:08;;;;;;;1.75;1.65;;;;;;;;;;5014873;28;92460;-60
2022/01/11 07:02:34;;;;;;;1.80;1.70;;;;;;;;;;5015191;27;93090;-60
2022/01/11 07:05:01;;;;;;;1.73;1.58;;;;;;;;;;5012608;28;92481;-60
2022/01/11 07:07:27;;;;;;;2.08;1.98;;;;;;;;;;5017182;28;92997;-60
2022/01/11 07:09:53;;;;;;;1.50;1.40;;;;;;;;;;5014462;28;92406;-60
2022/01/11 07:12:20;;;;;;;1.60;1.50;;;;;;;;;;5014202;28;91634;-59
2022/01/11 07:14:46;;;;;;;2.03;1.92;;;;;;;;;;5016216;28;92409;-60
2022/01/11 07:17:12;;;;;;;1.60;1.50;;;;;;;;;;5014771;28;93169;-60
2022/01/11 07:19:38;;;;;;;1.60;1.50;;;;;;;;;;5020164;27;95005;-60
2022/01/11 07:22:05;;;;;;;1.35;1.25;;;;;;;;;;5012913;28;93476;-60
2022/01/11 07:24:31;;;;;;;1.60;1.50;;;;;;;;;;5012929;28;92357;-60
2022/01/11 07:26:57;;;;;;;1.77;1.65;;;;;;;;;;5001895;28;93338;-60
2022/01/11 07:29:24;;;;;;;1.80;1.70;;;;;;;;;;5010401;28;93460;-60
2022/01/11 07:31:50;;;;;;;1.70;1.60;;;;;;;;;;5010561;28;92732;-60
2022/01/11 07:34:17;;;;;;;1.80;1.70;;;;;;;;;;5006683;28;93963;-59
2022/01/11 07:36:43;;;;;;;1.65;1.55;;;;;;;;;;5013790;28;92675;-56
2022/01/11 07:39:14;;;;;;;1.95;1.85;;;;;;;;;;5012673;28;93171;-60
2022/01/11 07:41:40;;;;;;;1.83;1.73;;;;;;;;;;5011787;27;94403;-61
2022/01/11 07:44:07;;;;;;;1.65;1.55;;;;;;;;;;5008487;28;94836;-60
2022/01/11 07:46:33;;;;;;;2.05;1.95;;;;;;;;;;5011354;28;94179;-59
2022/01/11 07:49:00;;;;;;;2.03;1.83;;;;;;;;;;5020796;28;92709;-59
2022/01/11 07:51:26;;;;;;;3.13;2.00;;;;;;;;;;5001120;27;93175;-61
2022/01/11 07:53:52;;;;;;;2.03;1.83;;;;;;;;;;5006727;28;93177;-60
2022/01/11 07:56:19;;;;;;;2.83;2.28;;;;;;;;;;5011557;28;93482;-58
2022/01/11 07:58:46;;;;;;;2.13;1.92;;;;;;;;;;5015104;28;92479;-58
2022/01/11 08:01:12;;;;;;;3.00;1.80;;;;;;;;;;5013135;28;92579;-57
2022/01/11 08:03:39;;;;;;;2.10;1.95;;;;;;;;;;5015265;28;92530;-60
2022/01/11 08:06:05;;;;;;;4.57;2.10;;;;;;;;;;5012435;28;93334;-58
2022/01/11 08:08:31;;;;;;;4.30;1.90;;;;;;;;;;5011607;28;96711;-60
2022/01/11 08:10:58;;;;;;;2.13;2.00;;;;;;;;;;5012806;28;92445;-59
2022/01/11 08:13:24;;;;;;;3.97;2.03;;;;;;;;;;5017831;28;92537;-60
2022/01/11 08:15:51;;;;;;;11.00;2.60;;;;;;;;;;5033144;27;93300;-59
2022/01/11 08:18:17;;;;;;;5.18;2.35;;;;;;;;;;5031573;27;92469;-61
2022/01/11 08:20:44;;;;;;;3.80;2.40;;;;;;;;;;5014721;28;94325;-61
2022/01/11 08:23:11;;;;;;;7.50;2.85;;;;;;;;;;5030250;27;92462;-61
2022/01/11 08:25:37;;;;;;;6.13;2.28;;;;;;;;;;5032727;27;91676;-61
2022/01/11 08:28:04;;;;;;;5.05;2.08;;;;;;;;;;5031752;27;93295;-61
2022/01/11 08:30:35;;;;;;;8.27;2.08;;;;;;;;;;5029336;27;92400;-61
2022/01/11 08:33:04;;;;;;;4.40;2.50;;;;;;;;;;5012983;28;95389;-60
2022/01/11 08:35:33;;;;;;;2.97;2.05;;;;;;;;;;5031283;27;93911;-61
2022/01/11 08:38:03;;;;;;;4.78;2.33;;;;;;;;;;5023947;27;92434;-61
2022/01/11 08:40:29;;;;;;;5.07;2.33;;;;;;;;;;5014831;28;93140;-61
2022/01/11 08:42:56;;;;;;;5.43;2.75;;;;;;;;;;5013265;28;92434;-62
2022/01/11 08:45:22;;;;;;;16.83;3.28;;;;;;;;;;5030458;28;92493;-63
2022/01/11 08:47:48;;;;;;;13.63;2.90;;;;;;;;;;5024904;27;92390;-63
2022/01/11 08:50:15;;;;;;;6.47;2.80;;;;;;;;;;5011803;28;91920;-62
2022/01/11 08:52:42;;;;;;;14.02;3.50;;;;;;;;;;5011065;28;93565;-61
2022/01/11 08:55:11;;;;;;;5.00;3.13;;;;;;;;;;5018117;28;93290;-62
2022/01/11 08:57:37;;;;;;;4.60;2.88;;;;;;;;;;5025417;27;95379;-62
2022/01/11 09:00:06;;;;;;;6.07;3.03;;;;;;;;;;5012047;28;94138;-61
2022/01/11 09:02:35;;;;;;;8.95;2.80;;;;;;;;;;5014904;28;93211;-62
2022/01/11 09:05:01;;;;;;;4.78;3.08;;;;;;;;;;5028185;28;93120;-62
2022/01/11 09:07:28;;;;;;;3.33;2.80;;;;;;;;;;5031823;27;92449;-62
2022/01/11 09:09:54;;;;;;;6.25;2.80;;;;;;;;;;5030700;28;92507;-61
2022/01/11 09:12:20;;;;;;;2.95;2.70;;;;;;;;;;5020001;27;94021;-62
2022/01/11 09:14:47;;;;;;;9.65;3.10;;;;;;;;;;5011838;28;91669;-62
2022/01/11 09:17:13;;;;;;;4.70;2.67;;;;;;;;;;5011570;28;92792;-62
2022/01/11 09:19:40;;;;;;;3.35;2.83;;;;;;;;;;5011854;28;94237;-62
2022/01/11 09:22:06;;;;;;;4.68;2.45;;;;;;;;;;5022541;28;96638;-62
2022/01/11 09:24:35;;;;;;;5.65;2.65;;;;;;;;;;5021530;27;92428;-62
2022/01/11 09:27:04;;;;;;;5.95;2.90;;;;;;;;;;5011071;28;93331;-62
2022/01/11 09:29:34;;;;;;;13.85;3.55;;;;;;;;;;5030194;28;92586;-62
2022/01/11 09:32:01;;;;;;;4.30;3.30;;;;;;;;;;5022326;27;92945;-62
2022/01/11 09:34:28;;;;;;;9.27;3.78;;;;;;;;;;5010869;28;93441;-62
2022/01/11 09:36:54;;;;;;;10.13;3.42;;;;;;;;;;5028557;28;92519;-63
2022/01/11 09:39:20;;;;;;;6.88;3.72;;;;;;;;;;5032067;27;93408;-62
2022/01/11 09:41:47;;;;;;;9.63;3.63;;;;;;;;;;5014317;27;93667;-63
2022/01/11 09:44:13;;;;;;;4.03;3.63;;;;;;;;;;5022823;28;92362;-64
2022/01/11 09:46:39;;;;;;;12.65;3.80;;;;;;;;;;5017283;27;94810;-63
2022/01/11 09:49:06;;;;;;;5.55;3.60;;;;;;;;;;5015461;28;92798;-63
2022/01/11 09:51:34;;;;;;;11.55;3.55;;;;;;;;;;5021872;28;92920;-63
2022/01/11 09:54:00;;;;;;;9.07;4.45;;;;;;;;;;5034242;27;93103;-63
2022/01/11 09:56:26;;;;;;;12.13;3.70;;;;;;;;;;5018087;27;92638;-63
2022/01/11 09:58:53;;;;;;;10.35;3.80;;;;;;;;;;5015542;28;93213;-63
2022/01/11 10:01:19;;;;;;;9.30;3.72;;;;;;;;;;5020200;28;93934;-63
2022/01/11 10:03:55;;;;;;;10.63;4.03;;;;;;;;;;5034856;27;91741;-63
2022/01/11 10:06:22;;;;;;;8.88;3.50;;;;;;;;;;5034904;27;92260;-63
2022/01/11 10:08:49;;;;;;;18.23;3.80;;;;;;;;;;5029614;27;92707;-63
2022/01/11 10:11:32;;;;;;;24.70;3.55;;;;;;;;;;5027953;27;94756;-63
2022/01/11 10:13:58;;;;;;;11.75;3.05;;;;;;;;;;5014890;28;93646;-63
2022/01/11 10:16:25;;;;;;;13.38;3.03;;;;;;;;;;5014209;28;92394;-62
2022/01/11 10:18:53;;;;;;;39.58;3.78;;;;;;;;;;5017496;28;93157;-62
2022/01/11 10:21:34;;;;;;;25.48;4.32;;;;;;;;;;5019046;28;93867;-62
2022/01/11 10:24:20;;;;;;;29.65;4.22;;;;;;;;;;5015836;27;92480;-62
2022/01/11 10:26:46;;;;;;;13.82;3.22;;;;;;;;;;5014375;28;93228;-63
2022/01/11 10:29:29;;;;;;;21.38;3.08;;;;;;;;;;5018833;28;91660;-61
2022/01/11 10:31:56;;;;;;;15.30;3.03;;;;;;;;;;5013622;28;92491;-61
2022/01/11 10:34:30;;;;;;;5.30;2.42;;;;;;;;;;5025476;28;93424;-60
2022/01/11 10:36:57;;;;;;;14.95;3.00;;;;;;;;;;4992448;28;94876;-61
2022/01/11 10:39:32;;;;;;;12.13;2.75;;;;;;;;;;5015549;28;95356;-61
2022/01/11 10:41:58;;;;;;;14.98;3.10;;;;;;;;;;5017532;27;92512;-61
2022/01/11 10:44:44;;;;;;;9.15;3.08;;;;;;;;;;5026167;28;92462;-60
2022/01/11 10:47:15;;;;;;;14.63;3.42;;;;;;;;;;5033650;27;92436;-61
2022/01/11 10:49:41;;;;;;;12.70;3.20;;;;;;;;;;5028573;27;93350;-61
2022/01/11 10:52:19;;;;;;;15.23;3.58;;;;;;;;;;5015282;28;92519;-60
2022/01/11 10:54:46;;;;;;;11.35;3.60;;;;;;;;;;5028477;27;91716;-61
2022/01/11 10:57:15;;;;;;;18.30;3.97;;;;;;;;;;5032628;27;93493;-61
2022/01/11 10:59:41;;;;;;;14.48;3.75;;;;;;;;;;5024507;28;92650;-61
2022/01/11 11:02:24;;;;;;;13.13;3.78;;;;;;;;;;5027899;28;96855;-60
2022/01/11 11:04:50;;;;;;;11.65;3.80;;;;;;;;;;5028284;28;92436;-61
2022/01/11 11:07:37;;;;;;;16.67;3.50;;;;;;;;;;5033559;27;93272;-61
2022/01/11 11:10:04;;;;;;;7.18;3.60;;;;;;;;;;5028794;27;94475;-59
2022/01/11 11:12:30;;;;;;;24.13;3.38;;;;;;;;;;5033747;27;92462;-60
2022/01/11 11:14:57;;;;;;;10.48;3.40;;;;;;;;;;5020422;27;92666;-60
2022/01/11 11:17:24;;;;;;;8.85;3.28;;;;;;;;;;5017260;28;92584;-60
2022/01/11 11:20:17;;;;;;;9.63;3.65;;;;;;;;;;5034401;27;94009;-60
2022/01/11 11:22:44;;;;;;;6.75;3.28;;;;;;;;;;5010396;28;94114;-61
2022/01/11 11:25:10;;;;;;;17.30;3.17;;;;;;;;;;5014272;28;92418;-60
2022/01/11 11:27:37;;;;;;;11.43;3.05;;;;;;;;;;5012146;28;94999;-61
2022/01/11 11:30:03;;;;;;;8.43;3.35;;;;;;;;;;5012155;28;92410;-61
2022/01/11 11:32:30;;;;;;;5.40;3.75;;;;;;;;;;5013476;28;92288;-61
2022/01/11 11:34:56;;;;;;;6.95;3.53;;;;;;;;;;5009477;28;92422;-61
2022/01/11 11:37:26;;;;;;;12.80;3.85;;;;;;;;;;5001746;28;94232;-60
2022/01/11 11:40:01;;;;;;;10.90;3.42;;;;;;;;;;4995337;28;94151;-61
2022/01/11 11:42:28;;;;;;;8.52;3.30;;;;;;;;;;5014171;28;93446;-60
2022/01/11 11:44:56;;;;;;;6.72;3.17;;;;;;;;;;5016189;28;91695;-61
2022/01/11 11:47:34;;;;;;;5.28;3.20;;;;;;;;;;5012719;28;92398;-59
2022/01/11 11:50:05;;;;;;;8.02;3.75;;;;;;;;;;5012440;28;93416;-61
2022/01/11 11:52:35;;;;;;;7.63;3.08;;;;;;;;;;5011355;28;94837;-60
2022/01/11 11:55:01;;;;;;;;;;;;;;;;;;5025054;28;94487;-61
2022/01/11 11:57:32;;;;;;;4.05;3.30;;;;;;;;;;5019743;28;124140;-61
2022/01/11 11:59:59;;;;;;;9.43;3.25;;;;;;;;;;4995938;28;92448;-60
2022/01/11 12:02:31;;;;;;;5.25;3.35;;;;;;;;;;5012510;28;93545;-60
2022/01/11 12:04:57;;;;;;;8.57;3.20;;;;;;;;;;5018994;28;92758;-60
2022/01/11 12:07:40;;;;;;;6.00;2.90;;;;;;;;;;5032796;27;93282;-61
2022/01/11 12:10:11;;;;;;;4.05;2.85;;;;;;;;;;5029193;27;91551;-60
2022/01/11 12:12:53;;;;;;;7.32;3.00;;;;;;;;;;5032285;28;92370;-60
2022/01/11 12:15:22;;;;;;;10.15;3.45;;;;;;;;;;5023435;27;93013;-61
2022/01/11 12:18:08;;;;;;;6.22;3.05;;;;;;;;;;5029363;28;96058;-61
2022/01/11 12:20:42;;;;;;;5.85;2.88;;;;;;;;;;5029695;27;92389;-61
2022/01/11 12:23:09;;;;;;;10.07;3.20;;;;;;;;;;5015306;28;92391;-61
2022/01/11 12:25:42;;;;;;;12.75;3.20;;;;;;;;;;5011005;28;92654;-61
2022/01/11 12:28:16;;;;;;;6.53;2.60;;;;;;;;;;5031497;27;93000;-61
2022/01/11 12:30:43;;;;;;;10.25;3.28;;;;;;;;;;5013621;27;92590;-60
2022/01/11 12:33:14;;;;;;;8.93;3.33;;;;;;;;;;5010256;28;92906;-60
2022/01/11 12:35:54;;;;;;;4.55;2.95;;;;;;;;;;5012505;28;93110;-61
2022/01/11 12:38:21;;;;;;;9.80;3.10;;;;;;;;;;5023590;28;93167;-61
2022/01/11 12:40:47;;;;;;;4.00;2.85;;;;;;;;;;5011627;28;92679;-61
2022/01/11 12:43:20;;;;;;;4.07;2.92;;;;;;;;;;5021991;28;95284;-60
2022/01/11 12:45:59;;;;;;;4.38;2.88;;;;;;;;;;5031946;27;92372;-60
2022/01/11 12:48:48;;;;;;;5.80;2.92;;;;;;;;;;5025992;27;92370;-61
2022/01/11 12:51:24;;;;;;;3.92;2.70;;;;;;;;;;5011545;28;92452;-61
2022/01/11 12:54:09;;;;;;;9.13;3.17;;;;;;;;;;5012383;28;92271;-61
2022/01/11 12:56:38;;;;;;;4.65;3.03;;;;;;;;;;5011639;28;92365;-61
2022/01/11 12:59:04;;;;;;;4.00;3.08;;;;;;;;;;5011969;28;93012;-61
2022/01/11 13:01:31;;;;;;;6.35;3.22;;;;;;;;;;5019195;28;91646;-62
2022/01/11 13:04:00;;;;;;;4.65;2.67;;;;;;;;;;5011339;28;92541;-63
2022/01/11 13:06:30;;;;;;;7.15;3.28;;;;;;;;;;5014616;28;93512;-61
2022/01/11 13:08:57;;;;;;;5.43;2.78;;;;;;;;;;5017872;28;94930;-61
2022/01/11 13:11:24;;;;;;;7.43;2.30;;;;;;;;;;5021326;27;92432;-61
2022/01/11 13:16:58;;;;;;;7.13;2.80;;;;;;;;;;5022010;27;93459;-61
2022/01/11 13:19:24;;;;;;;;;;;;;;;;;;5012744;28;92544;-61
2022/01/11 13:22:01;;;;;;;10.50;2.92;;;;;;;;;;5013080;28;118224;-63
2022/01/11 13:24:34;;;;;;;3.30;2.25;;;;;;;;;;5029077;28;92497;-63
2022/01/11 13:27:00;;;;;;;5.07;2.63;;;;;;;;;;5033016;27;91940;-63
2022/01/11 13:29:32;;;;;;;4.07;2.78;;;;;;;;;;5033933;27;92786;-63
2022/01/11 13:31:58;;;;;;;8.35;2.92;;;;;;;;;;5014283;28;93389;-63
2022/01/11 13:34:25;;;;;;;5.38;2.60;;;;;;;;;;5025514;28;94863;-63
2022/01/11 13:36:55;;;;;;;5.90;2.60;;;;;;;;;;5024907;27;95240;-63
2022/01/11 13:39:36;;;;;;;4.95;2.67;;;;;;;;;;5014971;28;93211;-63
2022/01/11 13:42:06;;;;;;;7.40;2.70;;;;;;;;;;5014790;28;92487;-63
2022/01/11 13:44:36;;;;;;;6.18;2.70;;;;;;;;;;5016909;28;92960;-63
2022/01/11 13:47:10;;;;;;;4.15;2.50;;;;;;;;;;5018091;28;93494;-63
2022/01/11 13:49:38;;;;;;;3.35;2.35;;;;;;;;;;5013447;28;93683;-64
2022/01/11 13:52:08;;;;;;;6.60;2.78;;;;;;;;;;5016836;28;92043;-63
2022/01/11 13:54:37;;;;;;;3.95;2.40;;;;;;;;;;5012991;28;92820;-63
2022/01/11 13:57:04;;;;;;;9.05;2.55;;;;;;;;;;5011267;28;92400;-63
2022/01/11 13:59:31;;;;;;;3.33;2.47;;;;;;;;;;5002247;28;94915;-63
2022/01/11 14:02:19;;;;;;;4.45;2.75;;;;;;;;;;5003512;28;92353;-61
2022/01/11 14:04:50;;;;;;;5.82;2.40;;;;;;;;;;5006861;28;92476;-60
2022/01/11 14:07:21;;;;;;;9.00;2.83;;;;;;;;;;5005873;28;93562;-60
2022/01/11 14:09:53;;;;;;;9.00;2.58;;;;;;;;;;5034786;27;92437;-60
2022/01/11 14:12:25;;;;;;;6.00;2.75;;;;;;;;;;5018425;27;92678;-60
2022/01/11 14:15:12;;;;;;;5.32;2.67;;;;;;;;;;5011423;28;95522;-60
2022/01/11 14:17:39;;;;;;;6.15;2.28;;;;;;;;;;5015252;28;94260;-60
2022/01/11 14:20:08;;;;;;;4.65;2.25;;;;;;;;;;5020063;28;92395;-60
2022/01/11 14:22:45;;;;;;;2.22;1.80;;;;;;;;;;5032685;27;92455;-59
2022/01/11 14:25:22;;;;;;;5.38;2.30;;;;;;;;;;5012798;28;94930;-63
2022/01/11 14:28:03;;;;;;;6.00;2.30;;;;;;;;;;5014105;28;94514;-63
2022/01/11 14:30:34;;;;;;;8.52;2.05;;;;;;;;;;5013712;28;92378;-62
2022/01/11 14:33:01;;;;;;;5.68;2.30;;;;;;;;;;5033737;27;92968;-62
2022/01/11 14:35:28;;;;;;;4.72;2.10;;;;;;;;;;5034350;27;92397;-62
2022/01/11 14:38:01;;;;;;;4.63;2.22;;;;;;;;;;5037362;27;92454;-62
2022/01/11 14:40:40;;;;;;;3.55;2.20;;;;;;;;;;5027975;27;92435;-62
2022/01/11 14:43:07;;;;;;;4.38;2.15;;;;;;;;;;5016389;28;91721;-63
2022/01/11 14:45:36;;;;;;;5.28;2.20;;;;;;;;;;5019576;28;92578;-62
2022/01/11 14:48:03;;;;;;;9.47;2.20;;;;;;;;;;5023528;27;93547;-62
2022/01/11 14:50:30;;;;;;;8.60;2.40;;;;;;;;;;5012614;28;94951;-62
2022/01/11 14:52:59;;;;;;;10.30;2.42;;;;;;;;;;5013916;28;94703;-63
2022/01/11 14:55:40;;;;;;;7.45;2.38;;;;;;;;;;5016995;28;93632;-62
2022/01/11 14:58:09;;;;;;;3.83;2.00;;;;;;;;;;5016488;28;92721;-62